Time;durP1;ratioP1;P1;durP2;ratioP2;P2;SDS_P1;SDS_P2;PMS_P1;PMS_P2;Temp;Humidity;BMP_temperature;BMP_pressure;BME280_temperature;BME280_humidity;BME280_pressure;Samples;Min_cycle;Max_cycle;Signal;HPM_P1;HPM_P2
2021/03/01 00:02:14;;;;;;;13.63;7.07;;;7.60;99.90;;;;;;5033093;28;20060;-69
2021/03/01 00:04:40;;;;;;;13.60;6.95;;;7.60;99.90;;;;;;5032302;28;20027;-69
2021/03/01 00:07:05;;;;;;;13.15;6.32;;;7.50;99.90;;;;;;5050687;28;20492;-69
2021/03/01 00:09:31;;;;;;;11.10;6.20;;;7.40;99.90;;;;;;5049987;28;20442;-70
2021/03/01 00:11:57;;;;;;;11.63;6.53;;;7.50;99.90;;;;;;5050494;28;20331;-69
2021/03/01 00:14:22;;;;;;;11.85;6.50;;;7.40;99.90;;;;;;5032660;28;20029;-68
2021/03/01 00:16:48;;;;;;;14.15;6.53;;;7.40;99.90;;;;;;5031840;28;20056;-69
2021/03/01 00:19:14;;;;;;;12.73;7.30;;;7.30;99.90;;;;;;5034322;28;20456;-68
2021/03/01 00:21:39;;;;;;;12.95;6.72;;;7.40;99.90;;;;;;5050029;28;20029;-70
2021/03/01 00:24:05;;;;;;;15.15;7.57;;;7.40;99.90;;;;;;5032428;28;20360;-71
2021/03/01 00:26:31;;;;;;;15.73;7.88;;;7.50;99.90;;;;;;5049908;28;20202;-70
2021/03/01 00:28:56;;;;;;;13.38;6.85;;;7.40;99.90;;;;;;5050398;28;20103;-72
2021/03/01 00:31:22;;;;;;;14.13;7.45;;;7.30;99.90;;;;;;5050246;28;20021;-68
2021/03/01 00:33:48;;;;;;;12.68;6.80;;;7.30;99.90;;;;;;5031770;28;20033;-69
2021/03/01 00:36:13;;;;;;;13.98;6.90;;;7.30;99.90;;;;;;5032708;28;20384;-70
2021/03/01 00:38:39;;;;;;;15.13;7.13;;;7.20;99.90;;;;;;5049782;28;20108;-69
2021/03/01 00:41:04;;;;;;;21.08;7.30;;;7.20;99.90;;;;;;5032533;28;20513;-69
2021/03/01 00:43:32;;;;;;;11.48;6.60;;;7.20;99.90;;;;;;5031349;28;20025;-69
2021/03/01 00:45:58;;;;;;;18.92;7.82;;;7.20;99.90;;;;;;5034184;28;20033;-69
2021/03/01 00:48:24;;;;;;;12.05;7.15;;;7.20;99.90;;;;;;5053411;28;20025;-69
2021/03/01 00:50:50;;;;;;;15.75;7.20;;;7.10;99.90;;;;;;5053214;28;20119;-70
2021/03/01 00:53:26;;;;;;;15.98;7.07;;;7.10;99.90;;;;;;5035730;28;20167;-70
2021/03/01 00:55:52;;;;;;;20.63;7.05;;;7.10;99.90;;;;;;5034665;28;20040;-69
2021/03/01 00:58:18;;;;;;;14.43;6.25;;;7.10;99.90;;;;;;5053389;28;20033;-68
2021/03/01 01:00:45;;;;;;;18.25;7.68;;;7.10;99.90;;;;;;5052778;28;20028;-70
2021/03/01 01:03:12;;;;;;;12.63;6.80;;;7.10;99.90;;;;;;5053146;28;20450;-69
2021/03/01 01:05:37;;;;;;;14.38;6.53;;;7.20;99.90;;;;;;5034496;28;20171;-70
2021/03/01 01:08:03;;;;;;;12.25;5.80;;;7.10;99.90;;;;;;5035435;28;20120;-70
2021/03/01 01:10:29;;;;;;;11.15;6.22;;;7.00;99.90;;;;;;5053106;28;20044;-72
2021/03/01 01:12:55;;;;;;;10.10;6.50;;;7.00;99.90;;;;;;5035127;28;20084;-69
2021/03/01 01:15:21;;;;;;;10.93;6.53;;;7.00;99.90;;;;;;5035367;28;20060;-69
2021/03/01 01:17:47;;;;;;;9.90;6.10;;;7.00;99.90;;;;;;5052646;28;20065;-69
2021/03/01 01:20:14;;;;;;;10.65;6.07;;;7.00;99.90;;;;;;5047720;28;20091;-69
2021/03/01 01:22:40;;;;;;;12.88;6.20;;;7.00;99.90;;;;;;5072447;28;20071;-69
2021/03/01 01:25:08;;;;;;;9.15;5.75;;;7.00;99.90;;;;;;5071908;28;20028;-69
2021/03/01 01:27:34;;;;;;;12.88;6.03;;;6.90;99.90;;;;;;5072120;28;20032;-69
2021/03/01 01:29:59;;;;;;;12.52;6.55;;;7.00;99.90;;;;;;5071254;28;20363;-69
2021/03/01 01:32:25;;;;;;;15.25;7.18;;;7.00;99.90;;;;;;5071525;28;20119;-69
2021/03/01 01:34:51;;;;;;;11.70;6.40;;;7.00;99.90;;;;;;5072350;28;20036;-69
2021/03/01 01:37:16;;;;;;;11.60;6.05;;;6.90;99.90;;;;;;5072716;28;20021;-69
2021/03/01 01:39:42;;;;;;;11.48;5.75;;;6.80;99.90;;;;;;5070651;28;20089;-69
2021/03/01 01:42:08;;;;;;;15.00;7.43;;;6.70;99.90;;;;;;5071100;28;20441;-69
2021/03/01 01:44:33;;;;;;;10.48;5.82;;;6.70;99.90;;;;;;5072270;28;20094;-69
2021/03/01 01:46:59;;;;;;;10.65;6.30;;;6.70;99.90;;;;;;5070938;28;20062;-69
2021/03/01 01:49:24;;;;;;;12.55;6.80;;;6.70;99.90;;;;;;5071228;28;20028;-69
2021/03/01 01:51:50;;;;;;;11.65;6.55;;;6.60;99.90;;;;;;5071774;28;20024;-69
2021/03/01 01:54:16;;;;;;;13.85;6.38;;;6.50;99.90;;;;;;5072799;28;20021;-69
2021/03/01 01:56:42;;;;;;;10.20;6.22;;;6.50;99.90;;;;;;5070225;28;20035;-69
2021/03/01 01:59:08;;;;;;;12.18;5.68;;;6.70;99.90;;;;;;5072146;28;20424;-69
2021/03/01 02:01:33;;;;;;;10.85;6.03;;;6.70;99.90;;;;;;5071689;28;20447;-69
2021/03/01 02:04:17;;;;;;;12.88;6.07;;;6.70;99.90;;;;;;5070869;28;20024;-69
2021/03/01 02:07:11;;;;;;;13.00;5.90;;;6.70;99.90;;;;;;5070300;28;20322;-69
2021/03/01 02:10:08;;;;;;;10.48;6.25;;;6.70;99.90;;;;;;5068482;28;20143;-69
2021/03/01 02:12:58;;;;;;;12.23;6.15;;;6.70;99.90;;;;;;5069804;28;20462;-70
2021/03/01 02:15:39;;;;;;;11.05;6.18;;;6.60;99.90;;;;;;5070727;28;20115;-68
2021/03/01 02:18:05;;;;;;;11.90;6.17;;;6.50;99.90;;;;;;5072200;28;20029;-68
2021/03/01 02:20:31;;;;;;;13.43;7.32;;;6.50;99.90;;;;;;5061163;28;20053;-68
2021/03/01 02:22:56;;;;;;;11.90;6.88;;;6.50;99.90;;;;;;5033231;28;20029;-69
2021/03/01 02:25:25;;;;;;;12.88;7.18;;;6.60;99.90;;;;;;5052159;28;20133;-69
2021/03/01 02:27:56;;;;;;;12.82;6.75;;;6.60;99.90;;;;;;5051171;28;20035;-69
2021/03/01 02:30:25;;;;;;;15.52;7.78;;;6.50;99.90;;;;;;5051906;28;20502;-69
2021/03/01 02:33:01;;;;;;;14.75;7.65;;;6.40;99.90;;;;;;5033102;28;20032;-69
2021/03/01 02:35:31;;;;;;;15.27;7.53;;;6.50;99.90;;;;;;5033343;28;20115;-69
2021/03/01 02:37:58;;;;;;;14.00;7.30;;;6.50;99.90;;;;;;5033154;28;20025;-69
2021/03/01 02:40:25;;;;;;;13.13;6.97;;;6.50;99.90;;;;;;5033452;28;20029;-69
2021/03/01 02:42:52;;;;;;;13.10;6.88;;;6.30;99.90;;;;;;5050963;28;20079;-69
2021/03/01 02:45:18;;;;;;;17.98;8.80;;;6.40;99.90;;;;;;5051692;28;20500;-69
2021/03/01 02:47:45;;;;;;;15.40;7.40;;;6.40;99.90;;;;;;5032862;28;20061;-68
2021/03/01 02:50:12;;;;;;;12.93;6.97;;;6.40;99.90;;;;;;5051367;28;20033;-68
2021/03/01 02:52:40;;;;;;;14.07;6.82;;;6.40;99.90;;;;;;5032718;28;20036;-69
2021/03/01 02:55:07;;;;;;;13.23;6.68;;;6.30;99.90;;;;;;5033435;28;20029;-69
2021/03/01 02:57:34;;;;;;;12.05;6.38;;;6.30;99.90;;;;;;5033397;28;20462;-68
2021/03/01 03:00:05;;;;;;;19.65;7.75;;;6.30;99.90;;;;;;5050871;28;20036;-69
2021/03/01 03:02:31;;;;;;;15.40;7.40;;;6.30;99.90;;;;;;5033400;28;20132;-69
2021/03/01 03:04:59;;;;;;;9.55;6.10;;;6.30;99.90;;;;;;5032747;28;20025;-68
2021/03/01 03:07:24;;;;;;;14.18;8.23;;;6.40;99.90;;;;;;5050713;28;20047;-68
2021/03/01 03:09:50;;;;;;;14.80;7.93;;;6.30;99.90;;;;;;5032397;28;20029;-69
2021/03/01 03:12:18;;;;;;;12.32;6.80;;;6.30;99.90;;;;;;5033193;28;20029;-69
2021/03/01 03:14:44;;;;;;;16.23;8.45;;;6.30;99.90;;;;;;5032513;28;20378;-68
2021/03/01 03:17:11;;;;;;;12.50;7.93;;;6.20;99.90;;;;;;5032852;28;20032;-68
2021/03/01 03:19:39;;;;;;;16.23;8.23;;;6.30;99.90;;;;;;5032271;28;20474;-69
2021/03/01 03:22:05;;;;;;;15.57;7.93;;;6.20;99.90;;;;;;5033151;28;20119;-68
2021/03/01 03:24:30;;;;;;;15.52;7.40;;;6.20;99.90;;;;;;5033018;28;20067;-69
2021/03/01 03:26:56;;;;;;;13.55;7.72;;;6.20;99.90;;;;;;5032272;28;20028;-69
2021/03/01 03:29:22;;;;;;;14.65;7.45;;;6.20;99.90;;;;;;5050483;28;20029;-69
2021/03/01 03:31:48;;;;;;;12.77;8.35;;;6.10;99.90;;;;;;5032239;28;20029;-69
2021/03/01 03:34:13;;;;;;;16.83;8.23;;;6.10;99.90;;;;;;5032805;28;20355;-68
2021/03/01 03:36:46;;;;;;;17.77;8.35;;;6.10;99.90;;;;;;5050151;28;20447;-69
2021/03/01 03:39:14;;;;;;;15.02;7.88;;;6.00;99.90;;;;;;5050831;28;20033;-69
2021/03/01 03:41:41;;;;;;;18.52;8.57;;;6.10;99.90;;;;;;5032011;28;20033;-69
2021/03/01 03:44:09;;;;;;;14.10;8.35;;;6.20;99.90;;;;;;5033069;28;20029;-68
2021/03/01 03:46:37;;;;;;;17.10;9.85;;;6.20;99.90;;;;;;5050737;28;20053;-69
2021/03/01 03:49:04;;;;;;;18.48;8.30;;;6.10;99.90;;;;;;5050780;28;20029;-70
2021/03/01 03:51:32;;;;;;;17.63;9.35;;;6.10;99.90;;;;;;5050537;28;20419;-70
2021/03/01 03:54:03;;;;;;;16.90;9.45;;;6.00;99.90;;;;;;5032123;28;20378;-70
2021/03/01 03:56:31;;;;;;;17.40;8.50;;;6.00;99.90;;;;;;5050544;28;20029;-69
2021/03/01 03:59:04;;;;;;;17.58;8.90;;;6.00;99.90;;;;;;5049903;28;20124;-69
2021/03/01 04:01:32;;;;;;;19.52;8.95;;;5.90;99.90;;;;;;5032607;28;20079;-69
2021/03/01 04:04:02;;;;;;;15.68;9.25;;;5.90;99.90;;;;;;5049725;28;20024;-69
2021/03/01 04:06:30;;;;;;;19.25;10.55;;;5.80;99.90;;;;;;5032535;28;20044;-69
2021/03/01 04:08:58;;;;;;;20.42;10.55;;;5.80;99.90;;;;;;5031783;28;20055;-69
2021/03/01 04:11:25;;;;;;;20.15;8.80;;;5.80;99.90;;;;;;5032554;28;20028;-69
2021/03/01 04:13:54;;;;;;;15.82;9.68;;;5.70;99.90;;;;;;5031565;28;20036;-69
2021/03/01 04:16:22;;;;;;;16.27;9.55;;;5.60;99.90;;;;;;5032524;28;20036;-69
2021/03/01 04:18:51;;;;;;;17.15;9.75;;;5.70;99.90;;;;;;5032149;28;20032;-69
2021/03/01 04:21:18;;;;;;;31.95;12.60;;;5.80;99.90;;;;;;5066438;28;20110;-69
2021/03/01 04:23:48;;;;;;;18.00;10.00;;;5.80;99.90;;;;;;5073301;28;20029;-70
2021/03/01 04:26:14;;;;;;;19.92;10.85;;;5.70;99.90;;;;;;5072972;28;20105;-70
2021/03/01 04:28:41;;;;;;;23.05;10.60;;;5.70;99.90;;;;;;5072505;28;20054;-70
2021/03/01 04:31:08;;;;;;;19.67;9.85;;;5.80;99.90;;;;;;5072581;28;20043;-69
2021/03/01 04:33:35;;;;;;;23.30;10.93;;;5.70;99.90;;;;;;5072697;28;20104;-70
2021/03/01 04:36:01;;;;;;;16.65;9.80;;;5.80;99.90;;;;;;5073332;28;20319;-70
2021/03/01 04:38:27;;;;;;;16.95;10.40;;;5.70;99.90;;;;;;5073664;28;20029;-70
2021/03/01 04:40:54;;;;;;;19.80;10.82;;;5.60;99.90;;;;;;5073144;28;20056;-69
2021/03/01 04:43:21;;;;;;;18.55;10.10;;;5.70;99.90;;;;;;5073588;28;20492;-69
2021/03/01 04:45:51;;;;;;;21.35;10.57;;;5.60;99.90;;;;;;5071983;28;20025;-70
2021/03/01 04:48:17;;;;;;;24.23;11.50;;;5.60;99.90;;;;;;5072495;28;20067;-70
2021/03/01 04:50:47;;;;;;;19.77;11.27;;;5.40;99.90;;;;;;5073107;28;20074;-70
2021/03/01 04:53:14;;;;;;;16.92;9.98;;;5.40;99.90;;;;;;5073525;28;20519;-70
2021/03/01 04:55:40;;;;;;;21.00;11.02;;;5.60;99.90;;;;;;5073790;28;20131;-69
2021/03/01 04:58:07;;;;;;;19.48;11.63;;;5.40;99.90;;;;;;5073046;28;20024;-70
2021/03/01 05:00:35;;;;;;;22.58;10.77;;;5.40;99.90;;;;;;5073689;28;20067;-69
2021/03/01 05:03:01;;;;;;;21.02;11.20;;;5.40;99.90;;;;;;5072697;28;20075;-70
2021/03/01 05:05:27;;;;;;;22.55;11.43;;;5.40;99.90;;;;;;5073697;28;20111;-69
2021/03/01 05:07:58;;;;;;;23.45;11.50;;;5.30;99.90;;;;;;5071612;28;20064;-71
2021/03/01 05:10:25;;;;;;;24.38;12.50;;;5.40;99.90;;;;;;5072308;28;20547;-70
2021/03/01 05:12:52;;;;;;;20.52;12.05;;;5.30;99.90;;;;;;5072417;28;20032;-70
2021/03/01 05:15:17;;;;;;;22.92;13.27;;;5.30;99.90;;;;;;5071879;28;20032;-69
2021/03/01 05:17:43;;;;;;;20.08;11.90;;;5.20;99.90;;;;;;5071665;28;20050;-69
2021/03/01 05:20:09;;;;;;;24.88;12.15;;;5.20;99.90;;;;;;5070674;28;20347;-71
2021/03/01 05:22:34;;;;;;;18.80;10.93;;;5.10;99.90;;;;;;5071240;28;20029;-72
2021/03/01 05:25:00;;;;;;;27.63;11.98;;;5.10;99.90;;;;;;5071576;28;20029;-71
2021/03/01 05:27:26;;;;;;;21.52;12.55;;;5.10;99.90;;;;;;5071312;28;20025;-72
2021/03/01 05:29:53;;;;;;;23.20;11.07;;;5.00;99.90;;;;;;5072071;28;20116;-71
2021/03/01 05:32:19;;;;;;;22.50;11.32;;;5.00;99.90;;;;;;5070023;28;20028;-71
2021/03/01 05:34:44;;;;;;;19.45;11.57;;;5.00;99.90;;;;;;5070400;28;20082;-74
2021/03/01 05:37:10;;;;;;;20.17;12.18;;;5.00;99.90;;;;;;5069926;28;20039;-73
2021/03/01 05:39:35;;;;;;;25.92;13.02;;;5.10;99.90;;;;;;5071184;28;20366;-71
2021/03/01 05:42:02;;;;;;;20.38;12.10;;;4.90;99.90;;;;;;5071297;28;20036;-71
2021/03/01 05:44:29;;;;;;;22.40;11.82;;;5.00;99.90;;;;;;5072251;28;20071;-72
2021/03/01 05:46:55;;;;;;;21.17;11.82;;;5.00;99.90;;;;;;5070266;28;20025;-71
2021/03/01 05:49:22;;;;;;;24.70;13.55;;;5.00;99.90;;;;;;5070772;28;20056;-71
2021/03/01 05:51:51;;;;;;;17.83;12.18;;;4.80;99.90;;;;;;5071901;28;20024;-75
2021/03/01 05:54:20;;;;;;;22.83;13.38;;;4.80;99.90;;;;;;5070580;28;20390;-70
2021/03/01 05:56:50;;;;;;;20.63;12.73;;;4.60;99.90;;;;;;5070356;28;20407;-70
2021/03/01 05:59:18;;;;;;;20.45;11.95;;;4.60;99.90;;;;;;5071739;28;20032;-71
2021/03/01 06:01:44;;;;;;;22.15;12.13;;;4.50;99.90;;;;;;5072426;28;20059;-71
2021/03/01 06:04:10;;;;;;;18.25;11.45;;;4.60;99.90;;;;;;5069253;28;20035;-72
2021/03/01 06:06:36;;;;;;;24.88;13.05;;;4.60;99.90;;;;;;5069821;28;20458;-71
2021/03/01 06:09:03;;;;;;;21.65;11.75;;;4.40;99.90;;;;;;5070120;28;20029;-70
2021/03/01 06:11:29;;;;;;;19.80;11.30;;;4.30;99.90;;;;;;5070803;28;20039;-71
2021/03/01 06:13:54;;;;;;;22.13;12.48;;;4.30;99.90;;;;;;5071016;28;20127;-71
2021/03/01 06:16:20;;;;;;;21.67;12.18;;;4.30;99.90;;;;;;5070688;28;20029;-71
2021/03/01 06:18:46;;;;;;;17.17;10.60;;;4.40;99.90;;;;;;5070558;28;20103;-71
2021/03/01 06:21:22;;;;;;;16.35;11.10;;;4.20;99.90;;;;;;5069941;28;20053;-70
2021/03/01 06:23:49;;;;;;;17.83;10.73;;;4.20;99.90;;;;;;5069947;28;20040;-75
2021/03/01 06:26:28;;;;;;;16.40;10.75;;;4.20;99.90;;;;;;5071860;28;20032;-70
2021/03/01 06:29:04;;;;;;;19.90;11.65;;;4.30;99.90;;;;;;5070010;28;20029;-71
2021/03/01 06:31:35;;;;;;;17.15;11.45;;;4.30;99.90;;;;;;5070530;28;20050;-71
2021/03/01 06:34:30;;;;;;;20.80;12.98;;;4.30;99.90;;;;;;5070731;28;20511;-70
2021/03/01 06:36:59;;;;;;;21.67;11.52;;;4.30;99.90;;;;;;5066915;28;20090;-70
2021/03/01 06:39:35;;;;;;;19.35;12.52;;;4.40;99.90;;;;;;5070249;28;20492;-70
2021/03/01 06:42:16;;;;;;;23.70;12.05;;;4.50;99.90;;;;;;5069331;28;20119;-71
2021/03/01 06:44:47;;;;;;;19.80;11.60;;;4.40;99.90;;;;;;5069693;28;20047;-72
2021/03/01 06:47:13;;;;;;;17.25;11.77;;;4.50;99.90;;;;;;5070149;28;20025;-71
2021/03/01 06:49:40;;;;;;;17.88;10.80;;;4.30;99.90;;;;;;5069847;28;20029;-70
2021/03/01 06:52:07;;;;;;;18.05;11.65;;;4.40;99.90;;;;;;5069181;28;20039;-74
2021/03/01 06:54:33;;;;;;;18.85;11.77;;;4.30;99.90;;;;;;5069965;28;20419;-71
2021/03/01 06:56:59;;;;;;;18.20;11.27;;;4.30;99.90;;;;;;5069526;28;20043;-73
2021/03/01 06:59:25;;;;;;;19.02;10.27;;;4.30;99.90;;;;;;5069958;28;20029;-75
2021/03/01 07:01:52;;;;;;;14.63;10.02;;;4.40;99.90;;;;;;5069022;28;20023;-72
2021/03/01 07:04:23;;;;;;;16.00;10.32;;;4.40;99.90;;;;;;5071227;28;20104;-71
2021/03/01 07:06:50;;;;;;;15.55;11.10;;;4.40;99.90;;;;;;5070959;28;20029;-71
2021/03/01 07:09:17;;;;;;;16.38;10.82;;;4.40;99.90;;;;;;5070899;28;20025;-71
2021/03/01 07:11:44;;;;;;;20.50;11.23;;;4.60;99.90;;;;;;5070902;28;20181;-72
2021/03/01 07:14:13;;;;;;;15.38;10.52;;;4.60;99.90;;;;;;5070060;28;20791;-72
2021/03/01 07:16:53;;;;;;;13.93;10.02;;;4.70;99.90;;;;;;5069165;28;20412;-71
2021/03/01 07:19:24;;;;;;;14.93;10.35;;;4.70;99.90;;;;;;5068752;28;20035;-71
2021/03/01 07:21:52;;;;;;;15.90;9.95;;;4.50;99.90;;;;;;5051155;28;20074;-71
2021/03/01 07:24:20;;;;;;;17.15;10.30;;;4.60;99.90;;;;;;5050569;28;20373;-71
2021/03/01 07:26:47;;;;;;;14.65;9.85;;;4.70;99.90;;;;;;5033181;28;20473;-72
2021/03/01 07:29:18;;;;;;;15.23;9.25;;;4.80;99.90;;;;;;5032384;28;20116;-71
2021/03/01 07:31:56;;;;;;;13.80;9.23;;;4.80;99.90;;;;;;5032778;28;20025;-72
2021/03/01 07:34:23;;;;;;;24.08;9.65;;;5.20;99.90;;;;;;5032951;28;20063;-72
2021/03/01 07:36:52;;;;;;;17.25;10.00;;;5.20;99.90;;;;;;5032829;28;20438;-72
2021/03/01 07:39:18;;;;;;;12.32;8.90;;;5.40;99.90;;;;;;5050511;28;20035;-72
2021/03/01 07:41:44;;;;;;;14.60;9.93;;;5.60;99.90;;;;;;5032562;28;20025;-71
2021/03/01 07:44:10;;;;;;;15.90;9.18;;;5.60;99.90;;;;;;5049492;28;20447;-72
2021/03/01 07:46:46;;;;;;;12.98;8.77;;;5.90;99.90;;;;;;5032697;28;20055;-72
2021/03/01 07:49:13;;;;;;;16.23;9.82;;;6.20;99.90;;;;;;5031900;28;20036;-73
2021/03/01 07:51:49;;;;;;;14.32;9.40;;;6.50;99.90;;;;;;5050318;28;20372;-72
2021/03/01 07:54:18;;;;;;;14.43;8.70;;;6.70;99.90;;;;;;5051284;28;20025;-72
2021/03/01 07:56:47;;;;;;;10.95;8.18;;;6.80;99.90;;;;;;5054489;28;20052;-72
2021/03/01 07:59:14;;;;;;;12.10;9.02;;;7.20;99.90;;;;;;5053973;28;20465;-73
2021/03/01 08:01:40;;;;;;;14.52;8.40;;;7.50;99.90;;;;;;5054424;28;20029;-71
2021/03/01 08:04:26;;;;;;;11.38;7.95;;;7.70;99.90;;;;;;5035846;28;20043;-71
2021/03/01 08:06:55;;;;;;;15.82;8.88;;;7.90;99.90;;;;;;5035958;28;20502;-71
2021/03/01 08:09:43;;;;;;;13.02;7.78;;;8.10;99.90;;;;;;5036635;28;20074;-72
2021/03/01 08:12:12;;;;;;;10.75;7.53;;;8.40;99.90;;;;;;5035738;28;20539;-71
2021/03/01 08:14:53;;;;;;;11.73;8.70;;;8.90;99.90;;;;;;5036305;28;20033;-71
2021/03/01 08:17:29;;;;;;;14.20;7.47;;;9.50;99.90;;;;;;5035745;28;20021;-71
2021/03/01 08:19:59;;;;;;;14.93;7.70;;;9.90;99.10;;;;;;5043473;28;20048;-75
2021/03/01 08:22:25;;;;;;;10.90;7.15;;;9.70;98.60;;;;;;5072762;28;20110;-72
2021/03/01 08:24:55;;;;;;;12.23;8.73;;;10.10;98.10;;;;;;5073897;28;20056;-71
2021/03/01 08:27:27;;;;;;;14.55;7.95;;;10.40;97.20;;;;;;5072630;28;20512;-71
2021/03/01 08:30:11;;;;;;;;;;;10.80;96.40;;;;;;5072947;28;20032;-71
2021/03/01 08:32:37;;;;;;;16.35;8.23;;;10.90;96.10;;;;;;5072337;28;19908;-73
2021/03/01 08:35:23;;;;;;;11.10;6.90;;;11.30;95.40;;;;;;5073039;28;20154;-72
2021/03/01 08:37:48;;;;;;;14.48;8.52;;;11.60;94.80;;;;;;5072148;28;20025;-72
2021/03/01 08:40:22;;;;;;;8.77;7.20;;;11.90;93.40;;;;;;5071804;28;20040;-72
2021/03/01 08:43:02;;;;;;;9.13;6.80;;;11.80;93.50;;;;;;5073622;28;20040;-71
2021/03/01 08:45:32;;;;;;;9.43;6.63;;;12.00;92.90;;;;;;5072666;28;20326;-72
2021/03/01 08:48:00;;;;;;;8.95;6.80;;;12.00;92.80;;;;;;5071826;28;20098;-73
2021/03/01 08:50:35;;;;;;;9.18;6.85;;;12.30;92.30;;;;;;5073653;28;20327;-72
2021/03/01 08:53:01;;;;;;;9.40;6.95;;;12.20;92.10;;;;;;5071837;28;20029;-71
2021/03/01 08:55:27;;;;;;;10.05;6.90;;;12.40;92.00;;;;;;5071744;28;20367;-72
2021/03/01 08:58:02;;;;;;;11.40;7.13;;;12.70;91.20;;;;;;5071388;28;20030;-72
2021/03/01 09:00:30;;;;;;;13.73;7.28;;;13.00;90.40;;;;;;5071926;28;20029;-71
2021/03/01 09:03:09;;;;;;;8.73;6.97;;;13.20;90.20;;;;;;5073629;28;20021;-73
2021/03/01 09:05:35;;;;;;;15.60;7.57;;;13.50;88.10;;;;;;5070963;28;20485;-73
2021/03/01 09:08:01;;;;;;;12.90;7.72;;;13.50;87.40;;;;;;5071407;28;20024;-73
2021/03/01 09:10:34;;;;;;;9.70;7.13;;;13.90;84.80;;;;;;5071992;28;20028;-73
2021/03/01 09:13:00;;;;;;;14.05;7.07;;;13.90;85.10;;;;;;5071369;28;20395;-72
2021/03/01 09:15:26;;;;;;;10.38;6.47;;;14.10;83.90;;;;;;5071858;28;20036;-72
2021/03/01 09:17:52;;;;;;;7.82;6.45;;;14.20;82.70;;;;;;5072956;28;20033;-72
2021/03/01 09:20:18;;;;;;;7.78;6.25;;;14.40;80.70;;;;;;5063230;28;20369;-73
2021/03/01 09:22:45;;;;;;;11.25;6.03;;;14.70;79.00;;;;;;5035119;28;20029;-73
2021/03/01 09:25:46;;;;;;;8.52;5.75;;;14.90;78.40;;;;;;5034392;28;20360;-73
2021/03/01 09:28:11;;;;;;;13.95;6.18;;;14.90;78.00;;;;;;4951938;29;20118;-73
2021/03/01 09:30:37;;;;;;;9.02;6.22;;;15.30;76.10;;;;;;5030816;28;20120;-73
2021/03/01 09:33:07;;;;;;;15.93;6.57;;;15.30;75.10;;;;;;5033938;28;20029;-73
2021/03/01 09:35:35;;;;;;;10.68;5.88;;;15.10;74.90;;;;;;5052294;28;20048;-74
2021/03/01 09:38:05;;;;;;;7.25;5.03;;;15.10;74.70;;;;;;5052059;28;20033;-73
2021/03/01 09:40:32;;;;;;;8.90;5.82;;;15.40;75.70;;;;;;5052391;28;20449;-74
2021/03/01 09:43:03;;;;;;;15.65;6.75;;;15.40;74.10;;;;;;5034368;28;20032;-74
2021/03/01 09:45:35;;;;;;;7.20;4.75;;;15.70;72.40;;;;;;5034922;28;20199;-73
2021/03/01 09:48:04;;;;;;;8.13;5.20;;;15.80;71.50;;;;;;5033693;28;20497;-74
2021/03/01 09:50:31;;;;;;;11.93;5.35;;;15.80;71.90;;;;;;5034202;28;20038;-73
2021/03/01 09:52:57;;;;;;;8.27;5.05;;;16.20;70.90;;;;;;5052435;28;20021;-73
2021/03/01 09:55:24;;;;;;;9.77;5.88;;;16.80;68.90;;;;;;5033536;28;20433;-72
2021/03/01 09:57:50;;;;;;;8.07;5.38;;;16.70;67.70;;;;;;5017704;28;20025;-74
2021/03/01 10:00:24;;;;;;;7.95;5.57;;;17.10;66.20;;;;;;5051476;28;20025;-75
2021/03/01 10:03:01;;;;;;;7.25;5.50;;;17.20;66.30;;;;;;5034189;28;20378;-74
2021/03/01 10:05:28;;;;;;;10.20;5.13;;;17.30;64.90;;;;;;5033932;28;20032;-73
2021/03/01 10:07:59;;;;;;;8.18;5.28;;;17.40;63.10;;;;;;5051701;28;20093;-74
2021/03/01 10:10:33;;;;;;;8.57;6.07;;;17.30;63.10;;;;;;5033196;28;20347;-73
2021/03/01 10:12:59;;;;;;;11.77;5.95;;;17.60;62.60;;;;;;5033639;28;20041;-74
2021/03/01 10:15:26;;;;;;;9.85;6.43;;;17.80;61.50;;;;;;5033207;28;20067;-73
2021/03/01 10:18:09;;;;;;;6.15;5.07;;;18.00;60.10;;;;;;5051381;28;20025;-73
2021/03/01 10:20:55;;;;;;;5.80;4.97;;;18.40;60.20;;;;;;5051643;28;20045;-74
2021/03/01 10:23:32;;;;;;;10.48;5.65;;;18.40;58.10;;;;;;5033182;28;20222;-69
2021/03/01 10:26:08;;;;;;;17.35;7.95;;;18.50;68.30;;;;;;5033486;28;20107;-71
2021/03/01 10:28:36;;;;;;;9.50;6.10;;;18.60;59.80;;;;;;5033743;28;20032;-72
2021/03/01 10:31:03;;;;;;;6.45;5.43;;;18.60;58.10;;;;;;5051090;28;20120;-77
2021/03/01 10:33:30;;;;;;;10.90;7.00;;;18.20;59.40;;;;;;5033724;28;20353;-72
2021/03/01 10:36:23;;;;;;;9.38;6.10;;;18.50;58.70;;;;;;5033307;28;20492;-71
2021/03/01 10:38:53;;;;;;;6.78;5.45;;;18.60;58.60;;;;;;5029323;28;20051;-71
2021/03/01 10:41:20;;;;;;;10.48;6.38;;;19.10;57.30;;;;;;5051009;28;20098;-71
2021/03/01 10:43:56;;;;;;;6.30;4.85;;;18.60;58.40;;;;;;5051043;28;20033;-71
2021/03/01 10:46:43;;;;;;;12.23;5.68;;;18.80;57.90;;;;;;5032970;28;20437;-72
2021/03/01 10:49:30;;;;;;;10.63;5.18;;;18.90;58.70;;;;;;5032711;28;20470;-72
2021/03/01 10:51:59;;;;;;;10.63;5.22;;;18.70;57.60;;;;;;5051289;28;20032;-72
2021/03/01 10:54:26;;;;;;;8.77;5.55;;;18.80;57.90;;;;;;5032422;28;20036;-72
2021/03/01 10:56:53;;;;;;;12.40;5.30;;;18.60;57.60;;;;;;5033075;28;20102;-73
2021/03/01 10:59:18;;;;;;;8.95;4.88;;;19.10;57.40;;;;;;5032213;28;20056;-73
2021/03/01 11:01:45;;;;;;;8.70;5.25;;;19.10;56.20;;;;;;5032923;28;20025;-72
2021/03/01 11:04:13;;;;;;;5.80;4.97;;;19.20;56.90;;;;;;5032280;28;20071;-72
2021/03/01 11:06:39;;;;;;;8.80;5.07;;;20.00;55.80;;;;;;5033136;28;20028;-72
2021/03/01 11:09:08;;;;;;;7.65;5.05;;;20.20;55.10;;;;;;5032869;28;20132;-77
2021/03/01 11:11:35;;;;;;;8.60;5.53;;;20.30;54.70;;;;;;5033179;28;20033;-72
2021/03/01 11:14:01;;;;;;;5.65;5.03;;;20.80;54.10;;;;;;5032839;28;20029;-72
2021/03/01 11:16:27;;;;;;;8.50;5.32;;;20.90;52.90;;;;;;5050110;28;20207;-72
2021/03/01 11:18:52;;;;;;;6.20;5.00;;;20.40;53.50;;;;;;5032451;28;20036;-72
2021/03/01 11:21:18;;;;;;;5.75;5.15;;;20.40;53.70;;;;;;5049616;28;20045;-75
2021/03/01 11:23:44;;;;;;;9.38;5.82;;;20.70;53.00;;;;;;5050817;28;20411;-72
2021/03/01 11:26:10;;;;;;;10.90;6.00;;;20.60;52.00;;;;;;5031800;28;20017;-73
2021/03/01 11:28:36;;;;;;;7.65;5.38;;;20.90;51.60;;;;;;5031394;28;20040;-72
2021/03/01 11:31:01;;;;;;;9.30;5.00;;;21.00;51.40;;;;;;5050116;28;20033;-72
2021/03/01 11:33:27;;;;;;;8.93;5.95;;;21.20;51.60;;;;;;5031856;28;20028;-71
2021/03/01 11:35:54;;;;;;;12.00;5.60;;;21.00;51.40;;;;;;5050178;28;20431;-72
2021/03/01 11:38:24;;;;;;;8.50;5.97;;;20.60;51.70;;;;;;5031263;28;20127;-72
2021/03/01 11:40:51;;;;;;;6.70;5.35;;;21.30;51.80;;;;;;5032471;28;20040;-72
2021/03/01 11:43:17;;;;;;;8.10;5.82;;;21.70;51.40;;;;;;5031835;28;20025;-71
2021/03/01 11:45:43;;;;;;;8.50;5.60;;;21.80;50.00;;;;;;5050651;28;20498;-71
2021/03/01 11:48:11;;;;;;;8.40;5.47;;;21.90;50.10;;;;;;5049474;28;20108;-72
2021/03/01 11:50:38;;;;;;;8.20;6.05;;;21.90;50.10;;;;;;5050290;28;20036;-72
2021/03/01 11:53:04;;;;;;;7.68;5.75;;;22.00;49.20;;;;;;5031876;28;20025;-72
2021/03/01 11:55:29;;;;;;;7.38;5.47;;;21.50;50.00;;;;;;5031633;28;20029;-72
2021/03/01 11:57:55;;;;;;;9.75;6.18;;;22.00;49.20;;;;;;5032207;28;20475;-72
2021/03/01 12:00:21;;;;;;;15.57;5.93;;;22.20;49.10;;;;;;5031374;28;20029;-72
2021/03/01 12:02:47;;;;;;;9.52;5.88;;;22.30;48.60;;;;;;5032265;28;20111;-72
2021/03/01 12:05:13;;;;;;;9.50;5.53;;;22.10;48.60;;;;;;5031454;28;20119;-73
2021/03/01 12:07:39;;;;;;;8.38;5.03;;;22.10;48.70;;;;;;5031782;28;20029;-72
2021/03/01 12:10:05;;;;;;;6.82;5.78;;;22.40;48.40;;;;;;5031843;28;20491;-72
2021/03/01 12:12:32;;;;;;;8.00;6.10;;;22.20;47.70;;;;;;5031329;28;20476;-72
2021/03/01 12:14:57;;;;;;;8.93;5.95;;;22.20;47.60;;;;;;5049800;28;20029;-71
2021/03/01 12:17:23;;;;;;;8.07;6.47;;;22.20;47.70;;;;;;5049597;28;20027;-73
2021/03/01 12:19:49;;;;;;;9.57;6.40;;;22.30;48.10;;;;;;5037870;28;20389;-72
2021/03/01 12:22:15;;;;;;;11.25;5.93;;;22.00;48.50;;;;;;5069821;28;20096;-73
2021/03/01 12:24:40;;;;;;;7.32;5.60;;;22.20;48.70;;;;;;5068274;28;20021;-73
2021/03/01 12:27:06;;;;;;;6.90;5.50;;;22.30;47.10;;;;;;5070369;28;20031;-73
2021/03/01 12:29:32;;;;;;;7.60;5.88;;;22.40;48.00;;;;;;5069034;28;20386;-72
2021/03/01 12:31:58;;;;;;;6.80;5.57;;;22.60;47.30;;;;;;5070394;28;20116;-72
2021/03/01 12:34:24;;;;;;;5.93;5.07;;;22.90;46.70;;;;;;5069441;28;20037;-72
2021/03/01 12:36:50;;;;;;;6.60;5.32;;;22.80;46.90;;;;;;5069742;28;20024;-73
2021/03/01 12:39:16;;;;;;;11.15;5.90;;;22.60;46.90;;;;;;5068991;28;20108;-71
2021/03/01 12:41:42;;;;;;;9.38;6.10;;;22.70;46.60;;;;;;5073065;28;20435;-71
2021/03/01 12:44:08;;;;;;;6.40;5.43;;;22.30;46.80;;;;;;5072946;28;20040;-71
2021/03/01 12:46:33;;;;;;;15.45;6.10;;;22.50;47.50;;;;;;5071272;28;20058;-72
2021/03/01 12:48:59;;;;;;;7.07;5.00;;;22.80;47.10;;;;;;5073250;28;20028;-72
2021/03/01 12:51:25;;;;;;;18.52;6.38;;;23.40;46.90;;;;;;5072654;28;20028;-74